sensor_id;sensor_type;location;lat;lon;timestamp;P1;durP1;ratioP1;P2;durP2;ratioP2
15716;SDS011;7960;50.908;4.204;2022-09-09T00:00:22;5.17;;;2.77;;
15716;SDS011;7960;50.908;4.204;2022-09-09T00:02:52;4.70;;;2.30;;
15716;SDS011;7960;50.908;4.204;2022-09-09T00:05:29;5.50;;;2.53;;
15716;SDS011;7960;50.908;4.204;2022-09-09T00:08:03;6.30;;;2.60;;
15716;SDS011;7960;50.908;4.204;2022-09-09T00:10:31;5.90;;;2.80;;
15716;SDS011;7960;50.908;4.204;2022-09-09T00:13:02;4.07;;;2.20;;
15716;SDS011;7960;50.908;4.204;2022-09-09T00:15:38;4.40;;;2.33;;
15716;SDS011;7960;50.908;4.204;2022-09-09T00:18:12;6.63;;;3.07;;
15716;SDS011;7960;50.908;4.204;2022-09-09T00:20:47;6.47;;;2.90;;
15716;SDS011;7960;50.908;4.204;2022-09-09T00:23:25;8.47;;;3.33;;
15716;SDS011;7960;50.908;4.204;2022-09-09T00:25:58;7.30;;;3.00;;
15716;SDS011;7960;50.908;4.204;2022-09-09T00:28:29;7.67;;;3.20;;
15716;SDS011;7960;50.908;4.204;2022-09-09T00:30:59;5.07;;;3.33;;
15716;SDS011;7960;50.908;4.204;2022-09-09T00:33:34;7.63;;;3.70;;
15716;SDS011;7960;50.908;4.204;2022-09-09T00:36:01;6.30;;;3.60;;
15716;SDS011;7960;50.908;4.204;2022-09-09T00:38:32;6.67;;;3.87;;
15716;SDS011;7960;50.908;4.204;2022-09-09T00:41:04;4.30;;;3.40;;
15716;SDS011;7960;50.908;4.204;2022-09-09T00:43:36;6.57;;;3.53;;
15716;SDS011;7960;50.908;4.204;2022-09-09T00:49:08;7.13;;;4.17;;
15716;SDS011;7960;50.908;4.204;2022-09-09T00:51:46;8.03;;;4.67;;
15716;SDS011;7960;50.908;4.204;2022-09-09T00:57:21;8.53;;;4.47;;
15716;SDS011;7960;50.908;4.204;2022-09-09T00:59:56;8.60;;;4.33;;
15716;SDS011;7960;50.908;4.204;2022-09-09T01:02:39;11.70;;;4.67;;
15716;SDS011;7960;50.908;4.204;2022-09-09T01:05:16;6.83;;;4.07;;
15716;SDS011;7960;50.908;4.204;2022-09-09T01:07:48;8.07;;;4.57;;
15716;SDS011;7960;50.908;4.204;2022-09-09T01:10:21;9.60;;;4.80;;
15716;SDS011;7960;50.908;4.204;2022-09-09T01:12:56;9.97;;;4.43;;
15716;SDS011;7960;50.908;4.204;2022-09-09T01:15:29;6.80;;;4.47;;
15716;SDS011;7960;50.908;4.204;2022-09-09T01:17:59;7.50;;;4.43;;
15716;SDS011;7960;50.908;4.204;2022-09-09T01:20:30;7.53;;;4.40;;
15716;SDS011;7960;50.908;4.204;2022-09-09T01:26:08;8.70;;;4.40;;
15716;SDS011;7960;50.908;4.204;2022-09-09T01:28:41;8.10;;;4.20;;
15716;SDS011;7960;50.908;4.204;2022-09-09T01:31:11;8.30;;;4.70;;
15716;SDS011;7960;50.908;4.204;2022-09-09T01:33:41;7.97;;;4.03;;
15716;SDS011;7960;50.908;4.204;2022-09-09T01:36:09;7.50;;;3.60;;
15716;SDS011;7960;50.908;4.204;2022-09-09T01:38:38;9.40;;;3.73;;
15716;SDS011;7960;50.908;4.204;2022-09-09T01:41:07;6.43;;;3.57;;
15716;SDS011;7960;50.908;4.204;2022-09-09T01:43:34;8.67;;;3.60;;
15716;SDS011;7960;50.908;4.204;2022-09-09T01:46:01;5.80;;;3.00;;
15716;SDS011;7960;50.908;4.204;2022-09-09T01:48:28;5.50;;;2.97;;
15716;SDS011;7960;50.908;4.204;2022-09-09T01:50:55;6.40;;;3.30;;
15716;SDS011;7960;50.908;4.204;2022-09-09T01:53:22;7.40;;;2.80;;
15716;SDS011;7960;50.908;4.204;2022-09-09T01:55:53;4.80;;;2.77;;
15716;SDS011;7960;50.908;4.204;2022-09-09T01:58:32;6.00;;;2.90;;
15716;SDS011;7960;50.908;4.204;2022-09-09T02:01:06;9.27;;;2.90;;
15716;SDS011;7960;50.908;4.204;2022-09-09T02:03:39;7.17;;;3.23;;
15716;SDS011;7960;50.908;4.204;2022-09-09T02:06:14;4.93;;;2.80;;
15716;SDS011;7960;50.908;4.204;2022-09-09T02:08:52;8.50;;;3.07;;
15716;SDS011;7960;50.908;4.204;2022-09-09T02:11:22;7.50;;;3.03;;
15716;SDS011;7960;50.908;4.204;2022-09-09T02:13:52;6.83;;;2.73;;
15716;SDS011;7960;50.908;4.204;2022-09-09T02:16:23;9.37;;;3.30;;
15716;SDS011;7960;50.908;4.204;2022-09-09T02:18:54;8.80;;;3.70;;
15716;SDS011;7960;50.908;4.204;2022-09-09T02:21:25;5.97;;;3.47;;
15716;SDS011;7960;50.908;4.204;2022-09-09T02:23:54;5.53;;;2.90;;
15716;SDS011;7960;50.908;4.204;2022-09-09T02:26:25;5.57;;;3.30;;
15716;SDS011;7960;50.908;4.204;2022-09-09T02:28:54;8.17;;;3.47;;
15716;SDS011;7960;50.908;4.204;2022-09-09T02:31:24;8.70;;;3.40;;
15716;SDS011;7960;50.908;4.204;2022-09-09T02:33:52;11.20;;;3.47;;
15716;SDS011;7960;50.908;4.204;2022-09-09T02:36:21;9.83;;;3.30;;
15716;SDS011;7960;50.908;4.204;2022-09-09T02:38:51;7.00;;;3.00;;
15716;SDS011;7960;50.908;4.204;2022-09-09T02:41:19;5.80;;;3.20;;
15716;SDS011;7960;50.908;4.204;2022-09-09T02:43:49;6.70;;;3.20;;
15716;SDS011;7960;50.908;4.204;2022-09-09T02:46:22;7.53;;;3.10;;
15716;SDS011;7960;50.908;4.204;2022-09-09T02:48:59;7.77;;;3.10;;
15716;SDS011;7960;50.908;4.204;2022-09-09T02:51:30;7.63;;;3.17;;
15716;SDS011;7960;50.908;4.204;2022-09-09T02:54:04;7.50;;;3.30;;
15716;SDS011;7960;50.908;4.204;2022-09-09T02:56:39;6.53;;;3.20;;
15716;SDS011;7960;50.908;4.204;2022-09-09T02:59:10;7.50;;;2.83;;
15716;SDS011;7960;50.908;4.204;2022-09-09T03:01:38;6.27;;;3.60;;
15716;SDS011;7960;50.908;4.204;2022-09-09T03:04:06;9.67;;;3.70;;
15716;SDS011;7960;50.908;4.204;2022-09-09T03:06:33;11.27;;;3.80;;
15716;SDS011;7960;50.908;4.204;2022-09-09T03:09:00;10.00;;;3.37;;
15716;SDS011;7960;50.908;4.204;2022-09-09T03:11:28;12.57;;;3.83;;
15716;SDS011;7960;50.908;4.204;2022-09-09T03:13:55;7.53;;;3.13;;
15716;SDS011;7960;50.908;4.204;2022-09-09T03:16:22;8.73;;;3.30;;
15716;SDS011;7960;50.908;4.204;2022-09-09T03:18:50;7.20;;;3.13;;
15716;SDS011;7960;50.908;4.204;2022-09-09T03:21:17;7.63;;;3.40;;
15716;SDS011;7960;50.908;4.204;2022-09-09T03:23:44;8.03;;;3.27;;
15716;SDS011;7960;50.908;4.204;2022-09-09T03:26:11;7.93;;;3.50;;
15716;SDS011;7960;50.908;4.204;2022-09-09T03:28:40;7.20;;;2.80;;
15716;SDS011;7960;50.908;4.204;2022-09-09T03:31:07;4.67;;;3.00;;
15716;SDS011;7960;50.908;4.204;2022-09-09T03:33:35;6.40;;;3.40;;
15716;SDS011;7960;50.908;4.204;2022-09-09T03:36:04;9.77;;;3.40;;
15716;SDS011;7960;50.908;4.204;2022-09-09T03:38:32;6.07;;;3.10;;
15716;SDS011;7960;50.908;4.204;2022-09-09T03:40:59;8.33;;;3.50;;
15716;SDS011;7960;50.908;4.204;2022-09-09T03:43:27;8.33;;;3.77;;
15716;SDS011;7960;50.908;4.204;2022-09-09T03:45:54;8.17;;;3.10;;
15716;SDS011;7960;50.908;4.204;2022-09-09T03:48:22;9.87;;;3.10;;
15716;SDS011;7960;50.908;4.204;2022-09-09T03:50:51;8.07;;;3.33;;
15716;SDS011;7960;50.908;4.204;2022-09-09T03:53:21;9.70;;;3.43;;
15716;SDS011;7960;50.908;4.204;2022-09-09T03:55:50;9.23;;;3.53;;
15716;SDS011;7960;50.908;4.204;2022-09-09T03:58:20;8.97;;;3.10;;
15716;SDS011;7960;50.908;4.204;2022-09-09T04:00:53;8.07;;;3.17;;
15716;SDS011;7960;50.908;4.204;2022-09-09T04:03:20;8.47;;;3.33;;
15716;SDS011;7960;50.908;4.204;2022-09-09T04:05:49;8.53;;;2.83;;
15716;SDS011;7960;50.908;4.204;2022-09-09T04:08:16;10.17;;;3.37;;
15716;SDS011;7960;50.908;4.204;2022-09-09T04:10:45;8.30;;;3.20;;
15716;SDS011;7960;50.908;4.204;2022-09-09T04:13:13;6.43;;;3.00;;
15716;SDS011;7960;50.908;4.204;2022-09-09T04:15:41;10.93;;;3.60;;
15716;SDS011;7960;50.908;4.204;2022-09-09T04:18:08;11.13;;;3.40;;
15716;SDS011;7960;50.908;4.204;2022-09-09T04:20:35;10.43;;;3.60;;
15716;SDS011;7960;50.908;4.204;2022-09-09T04:23:01;9.83;;;3.33;;
15716;SDS011;7960;50.908;4.204;2022-09-09T04:25:28;11.33;;;3.50;;
15716;SDS011;7960;50.908;4.204;2022-09-09T04:27:57;11.90;;;3.73;;
15716;SDS011;7960;50.908;4.204;2022-09-09T04:30:24;7.93;;;3.43;;
15716;SDS011;7960;50.908;4.204;2022-09-09T04:32:52;7.93;;;3.10;;
15716;SDS011;7960;50.908;4.204;2022-09-09T04:35:19;9.17;;;3.77;;
15716;SDS011;7960;50.908;4.204;2022-09-09T04:37:46;11.00;;;3.20;;
15716;SDS011;7960;50.908;4.204;2022-09-09T04:40:13;10.23;;;3.13;;
15716;SDS011;7960;50.908;4.204;2022-09-09T04:42:40;13.43;;;4.50;;
15716;SDS011;7960;50.908;4.204;2022-09-09T04:45:10;13.20;;;4.20;;
15716;SDS011;7960;50.908;4.204;2022-09-09T04:47:38;10.67;;;3.57;;
15716;SDS011;7960;50.908;4.204;2022-09-09T04:50:06;7.30;;;4.20;;
15716;SDS011;7960;50.908;4.204;2022-09-09T04:52:33;8.27;;;3.97;;
15716;SDS011;7960;50.908;4.204;2022-09-09T04:55:00;11.13;;;3.70;;
15716;SDS011;7960;50.908;4.204;2022-09-09T04:57:27;11.53;;;4.00;;
15716;SDS011;7960;50.908;4.204;2022-09-09T04:59:56;10.40;;;3.60;;
15716;SDS011;7960;50.908;4.204;2022-09-09T05:02:26;8.50;;;3.33;;
15716;SDS011;7960;50.908;4.204;2022-09-09T05:04:53;9.67;;;3.30;;
15716;SDS011;7960;50.908;4.204;2022-09-09T05:07:20;9.87;;;3.33;;
15716;SDS011;7960;50.908;4.204;2022-09-09T05:09:47;16.37;;;4.03;;
15716;SDS011;7960;50.908;4.204;2022-09-09T05:12:14;8.93;;;3.43;;
15716;SDS011;7960;50.908;4.204;2022-09-09T05:14:42;9.23;;;3.60;;
15716;SDS011;7960;50.908;4.204;2022-09-09T05:17:09;7.17;;;3.40;;
15716;SDS011;7960;50.908;4.204;2022-09-09T05:19:38;12.57;;;3.53;;
15716;SDS011;7960;50.908;4.204;2022-09-09T05:22:04;8.93;;;3.50;;
15716;SDS011;7960;50.908;4.204;2022-09-09T05:24:32;7.53;;;3.07;;
15716;SDS011;7960;50.908;4.204;2022-09-09T05:26:59;10.90;;;4.13;;
15716;SDS011;7960;50.908;4.204;2022-09-09T05:29:27;11.57;;;3.63;;
15716;SDS011;7960;50.908;4.204;2022-09-09T05:31:54;11.07;;;3.63;;
15716;SDS011;7960;50.908;4.204;2022-09-09T05:34:21;6.33;;;3.23;;
15716;SDS011;7960;50.908;4.204;2022-09-09T05:36:49;8.73;;;3.80;;
15716;SDS011;7960;50.908;4.204;2022-09-09T05:39:17;7.90;;;3.37;;
15716;SDS011;7960;50.908;4.204;2022-09-09T05:41:44;11.40;;;3.57;;
15716;SDS011;7960;50.908;4.204;2022-09-09T05:44:10;9.20;;;3.60;;
15716;SDS011;7960;50.908;4.204;2022-09-09T05:46:38;8.80;;;3.37;;
15716;SDS011;7960;50.908;4.204;2022-09-09T05:49:05;13.93;;;3.60;;
15716;SDS011;7960;50.908;4.204;2022-09-09T05:51:33;8.33;;;3.60;;
15716;SDS011;7960;50.908;4.204;2022-09-09T05:54:01;9.57;;;3.93;;
15716;SDS011;7960;50.908;4.204;2022-09-09T05:56:28;8.70;;;3.20;;
15716;SDS011;7960;50.908;4.204;2022-09-09T05:58:57;7.93;;;3.70;;
15716;SDS011;7960;50.908;4.204;2022-09-09T06:01:25;10.30;;;3.67;;
15716;SDS011;7960;50.908;4.204;2022-09-09T06:03:53;10.27;;;3.50;;
15716;SDS011;7960;50.908;4.204;2022-09-09T06:06:21;9.70;;;3.70;;
15716;SDS011;7960;50.908;4.204;2022-09-09T06:08:51;7.80;;;3.30;;
15716;SDS011;7960;50.908;4.204;2022-09-09T06:11:21;9.10;;;4.03;;
15716;SDS011;7960;50.908;4.204;2022-09-09T06:13:49;9.37;;;3.50;;
15716;SDS011;7960;50.908;4.204;2022-09-09T06:16:20;9.33;;;3.80;;
15716;SDS011;7960;50.908;4.204;2022-09-09T06:18:48;12.43;;;3.80;;
15716;SDS011;7960;50.908;4.204;2022-09-09T06:21:16;11.17;;;3.57;;
15716;SDS011;7960;50.908;4.204;2022-09-09T06:23:44;9.87;;;3.07;;
15716;SDS011;7960;50.908;4.204;2022-09-09T06:26:11;12.00;;;3.37;;
15716;SDS011;7960;50.908;4.204;2022-09-09T06:28:41;10.00;;;3.40;;
15716;SDS011;7960;50.908;4.204;2022-09-09T06:31:08;10.93;;;3.60;;
15716;SDS011;7960;50.908;4.204;2022-09-09T06:33:37;12.40;;;3.47;;
15716;SDS011;7960;50.908;4.204;2022-09-09T06:36:06;13.17;;;3.67;;
15716;SDS011;7960;50.908;4.204;2022-09-09T06:38:37;10.03;;;3.77;;
15716;SDS011;7960;50.908;4.204;2022-09-09T06:41:04;10.23;;;3.47;;
15716;SDS011;7960;50.908;4.204;2022-09-09T06:43:31;12.00;;;3.10;;
15716;SDS011;7960;50.908;4.204;2022-09-09T06:46:02;12.10;;;3.20;;
15716;SDS011;7960;50.908;4.204;2022-09-09T06:48:30;13.43;;;5.07;;
15716;SDS011;7960;50.908;4.204;2022-09-09T06:51:00;10.10;;;3.40;;
15716;SDS011;7960;50.908;4.204;2022-09-09T06:53:28;13.03;;;3.60;;
15716;SDS011;7960;50.908;4.204;2022-09-09T06:55:58;13.73;;;3.77;;
15716;SDS011;7960;50.908;4.204;2022-09-09T06:58:26;10.90;;;2.93;;
15716;SDS011;7960;50.908;4.204;2022-09-09T07:01:02;7.00;;;2.90;;
15716;SDS011;7960;50.908;4.204;2022-09-09T07:03:29;10.80;;;3.10;;
15716;SDS011;7960;50.908;4.204;2022-09-09T07:05:56;10.87;;;3.10;;
15716;SDS011;7960;50.908;4.204;2022-09-09T07:08:24;14.43;;;3.80;;
15716;SDS011;7960;50.908;4.204;2022-09-09T07:10:51;9.47;;;2.83;;
15716;SDS011;7960;50.908;4.204;2022-09-09T07:13:19;11.33;;;3.20;;
15716;SDS011;7960;50.908;4.204;2022-09-09T07:15:49;6.00;;;2.77;;
15716;SDS011;7960;50.908;4.204;2022-09-09T07:18:17;6.73;;;3.03;;
15716;SDS011;7960;50.908;4.204;2022-09-09T07:20:52;11.73;;;3.30;;
15716;SDS011;7960;50.908;4.204;2022-09-09T07:23:20;9.30;;;3.47;;
15716;SDS011;7960;50.908;4.204;2022-09-09T07:25:47;11.57;;;3.27;;
15716;SDS011;7960;50.908;4.204;2022-09-09T07:28:15;14.63;;;3.50;;
15716;SDS011;7960;50.908;4.204;2022-09-09T07:30:42;12.10;;;3.57;;
15716;SDS011;7960;50.908;4.204;2022-09-09T07:33:09;8.27;;;3.07;;
15716;SDS011;7960;50.908;4.204;2022-09-09T07:35:37;9.40;;;3.40;;
15716;SDS011;7960;50.908;4.204;2022-09-09T07:38:04;9.10;;;3.63;;
15716;SDS011;7960;50.908;4.204;2022-09-09T07:40:31;8.80;;;3.53;;
15716;SDS011;7960;50.908;4.204;2022-09-09T07:42:59;7.90;;;3.30;;
15716;SDS011;7960;50.908;4.204;2022-09-09T07:45:26;7.27;;;3.00;;
15716;SDS011;7960;50.908;4.204;2022-09-09T07:47:54;6.70;;;3.03;;
15716;SDS011;7960;50.908;4.204;2022-09-09T07:50:22;10.57;;;3.57;;
15716;SDS011;7960;50.908;4.204;2022-09-09T07:52:50;9.83;;;3.50;;
15716;SDS011;7960;50.908;4.204;2022-09-09T07:55:18;6.63;;;3.00;;
15716;SDS011;7960;50.908;4.204;2022-09-09T07:57:45;8.57;;;3.30;;
15716;SDS011;7960;50.908;4.204;2022-09-09T08:00:13;9.90;;;3.40;;
15716;SDS011;7960;50.908;4.204;2022-09-09T08:02:43;7.50;;;3.00;;
15716;SDS011;7960;50.908;4.204;2022-09-09T08:05:13;10.00;;;2.93;;
15716;SDS011;7960;50.908;4.204;2022-09-09T08:07:40;7.10;;;3.00;;
15716;SDS011;7960;50.908;4.204;2022-09-09T08:10:08;10.50;;;3.10;;
15716;SDS011;7960;50.908;4.204;2022-09-09T08:12:37;12.23;;;3.20;;
15716;SDS011;7960;50.908;4.204;2022-09-09T08:15:04;10.33;;;2.93;;
15716;SDS011;7960;50.908;4.204;2022-09-09T08:17:32;6.97;;;2.83;;
15716;SDS011;7960;50.908;4.204;2022-09-09T08:19:59;10.07;;;3.40;;
15716;SDS011;7960;50.908;4.204;2022-09-09T08:22:30;11.03;;;3.23;;
15716;SDS011;7960;50.908;4.204;2022-09-09T08:24:57;9.00;;;3.93;;
15716;SDS011;7960;50.908;4.204;2022-09-09T08:27:25;10.77;;;3.10;;
15716;SDS011;7960;50.908;4.204;2022-09-09T08:29:52;14.23;;;3.30;;
15716;SDS011;7960;50.908;4.204;2022-09-09T08:32:19;12.20;;;3.53;;
15716;SDS011;7960;50.908;4.204;2022-09-09T08:34:46;11.80;;;3.10;;
15716;SDS011;7960;50.908;4.204;2022-09-09T08:37:14;9.00;;;3.53;;
15716;SDS011;7960;50.908;4.204;2022-09-09T08:39:41;9.40;;;3.37;;
15716;SDS011;7960;50.908;4.204;2022-09-09T08:45:22;7.90;;;2.90;;
15716;SDS011;7960;50.908;4.204;2022-09-09T08:48:11;5.37;;;2.80;;
15716;SDS011;7960;50.908;4.204;2022-09-09T08:50:48;7.40;;;3.70;;
15716;SDS011;7960;50.908;4.204;2022-09-09T08:53:17;8.63;;;3.60;;
15716;SDS011;7960;50.908;4.204;2022-09-09T08:55:47;8.10;;;2.80;;
15716;SDS011;7960;50.908;4.204;2022-09-09T08:58:18;4.47;;;3.20;;
15716;SDS011;7960;50.908;4.204;2022-09-09T09:00:53;5.37;;;2.90;;
15716;SDS011;7960;50.908;4.204;2022-09-09T09:03:34;8.17;;;3.20;;
15716;SDS011;7960;50.908;4.204;2022-09-09T09:06:11;8.03;;;3.37;;
15716;SDS011;7960;50.908;4.204;2022-09-09T09:08:50;9.60;;;4.27;;
15716;SDS011;7960;50.908;4.204;2022-09-09T09:11:25;11.80;;;3.80;;
15716;SDS011;7960;50.908;4.204;2022-09-09T09:13:56;7.63;;;3.60;;
15716;SDS011;7960;50.908;4.204;2022-09-09T09:16:30;10.57;;;3.53;;
15716;SDS011;7960;50.908;4.204;2022-09-09T09:19:01;8.03;;;3.10;;
15716;SDS011;7960;50.908;4.204;2022-09-09T09:21:31;10.10;;;3.40;;
15716;SDS011;7960;50.908;4.204;2022-09-09T09:24:04;8.20;;;3.50;;
15716;SDS011;7960;50.908;4.204;2022-09-09T09:26:40;9.67;;;3.03;;
15716;SDS011;7960;50.908;4.204;2022-09-09T09:29:12;5.93;;;3.17;;
15716;SDS011;7960;50.908;4.204;2022-09-09T09:31:42;8.10;;;3.33;;
15716;SDS011;7960;50.908;4.204;2022-09-09T09:34:13;7.60;;;2.90;;
15716;SDS011;7960;50.908;4.204;2022-09-09T09:36:43;7.37;;;3.00;;
15716;SDS011;7960;50.908;4.204;2022-09-09T09:39:22;8.77;;;3.43;;
15716;SDS011;7960;50.908;4.204;2022-09-09T09:41:50;7.23;;;2.97;;
15716;SDS011;7960;50.908;4.204;2022-09-09T09:44:26;4.90;;;2.70;;
15716;SDS011;7960;50.908;4.204;2022-09-09T09:47:05;8.70;;;3.07;;
15716;SDS011;7960;50.908;4.204;2022-09-09T09:49:33;19.70;;;4.93;;
15716;SDS011;7960;50.908;4.204;2022-09-09T09:52:01;6.87;;;3.00;;
15716;SDS011;7960;50.908;4.204;2022-09-09T09:54:28;7.83;;;3.00;;
15716;SDS011;7960;50.908;4.204;2022-09-09T09:57:06;16.07;;;3.53;;
15716;SDS011;7960;50.908;4.204;2022-09-09T09:59:37;11.10;;;3.23;;
15716;SDS011;7960;50.908;4.204;2022-09-09T10:02:10;6.97;;;3.10;;
15716;SDS011;7960;50.908;4.204;2022-09-09T10:04:41;10.47;;;3.50;;
15716;SDS011;7960;50.908;4.204;2022-09-09T10:07:10;9.80;;;3.30;;
15716;SDS011;7960;50.908;4.204;2022-09-09T10:09:38;9.37;;;3.10;;
15716;SDS011;7960;50.908;4.204;2022-09-09T10:12:08;4.43;;;3.10;;
15716;SDS011;7960;50.908;4.204;2022-09-09T10:14:45;5.17;;;2.97;;
15716;SDS011;7960;50.908;4.204;2022-09-09T10:17:20;6.73;;;3.03;;
15716;SDS011;7960;50.908;4.204;2022-09-09T10:19:56;7.23;;;2.73;;
15716;SDS011;7960;50.908;4.204;2022-09-09T10:22:33;4.90;;;2.50;;
15716;SDS011;7960;50.908;4.204;2022-09-09T10:27:52;4.67;;;2.90;;
15716;SDS011;7960;50.908;4.204;2022-09-09T10:30:35;4.80;;;2.30;;
15716;SDS011;7960;50.908;4.204;2022-09-09T10:33:16;6.63;;;2.90;;
15716;SDS011;7960;50.908;4.204;2022-09-09T10:35:53;4.83;;;2.70;;
15716;SDS011;7960;50.908;4.204;2022-09-09T10:38:32;7.13;;;3.00;;
15716;SDS011;7960;50.908;4.204;2022-09-09T10:41:09;5.63;;;2.33;;
15716;SDS011;7960;50.908;4.204;2022-09-09T10:44:02;7.23;;;2.90;;
15716;SDS011;7960;50.908;4.204;2022-09-09T10:46:45;7.17;;;2.80;;
15716;SDS011;7960;50.908;4.204;2022-09-09T10:49:26;8.30;;;2.80;;
15716;SDS011;7960;50.908;4.204;2022-09-09T10:52:07;6.80;;;2.77;;
15716;SDS011;7960;50.908;4.204;2022-09-09T10:54:43;4.90;;;2.47;;
15716;SDS011;7960;50.908;4.204;2022-09-09T10:57:23;6.50;;;2.73;;
15716;SDS011;7960;50.908;4.204;2022-09-09T10:59:57;9.37;;;2.80;;
15716;SDS011;7960;50.908;4.204;2022-09-09T11:02:30;7.13;;;3.03;;
15716;SDS011;7960;50.908;4.204;2022-09-09T11:05:00;6.17;;;2.60;;
15716;SDS011;7960;50.908;4.204;2022-09-09T11:07:33;6.57;;;2.30;;
15716;SDS011;7960;50.908;4.204;2022-09-09T11:10:05;7.63;;;2.53;;
15716;SDS011;7960;50.908;4.204;2022-09-09T11:12:41;6.00;;;2.53;;
15716;SDS011;7960;50.908;4.204;2022-09-09T11:15:14;4.17;;;2.67;;
15716;SDS011;7960;50.908;4.204;2022-09-09T11:17:48;7.40;;;2.80;;
15716;SDS011;7960;50.908;4.204;2022-09-09T11:20:19;3.80;;;2.10;;
15716;SDS011;7960;50.908;4.204;2022-09-09T11:22:48;5.80;;;2.03;;
15716;SDS011;7960;50.908;4.204;2022-09-09T11:25:21;3.83;;;2.20;;
15716;SDS011;7960;50.908;4.204;2022-09-09T11:30:55;6.93;;;2.23;;
15716;SDS011;7960;50.908;4.204;2022-09-09T11:33:39;4.53;;;2.10;;
15716;SDS011;7960;50.908;4.204;2022-09-09T11:36:28;3.57;;;2.20;;
15716;SDS011;7960;50.908;4.204;2022-09-09T11:42:07;4.80;;;2.33;;
15716;SDS011;7960;50.908;4.204;2022-09-09T11:44:41;3.83;;;2.43;;
15716;SDS011;7960;50.908;4.204;2022-09-09T11:47:15;4.80;;;2.33;;
15716;SDS011;7960;50.908;4.204;2022-09-09T11:49:51;5.50;;;2.40;;
15716;SDS011;7960;50.908;4.204;2022-09-09T11:52:21;4.53;;;1.90;;
15716;SDS011;7960;50.908;4.204;2022-09-09T11:54:51;5.73;;;2.53;;
15716;SDS011;7960;50.908;4.204;2022-09-09T11:57:23;6.03;;;2.37;;
15716;SDS011;7960;50.908;4.204;2022-09-09T11:59:53;5.73;;;2.33;;
15716;SDS011;7960;50.908;4.204;2022-09-09T12:02:22;4.33;;;2.43;;
15716;SDS011;7960;50.908;4.204;2022-09-09T12:04:56;7.07;;;2.60;;
15716;SDS011;7960;50.908;4.204;2022-09-09T12:07:34;5.23;;;2.80;;
15716;SDS011;7960;50.908;4.204;2022-09-09T12:10:05;8.23;;;2.70;;
15716;SDS011;7960;50.908;4.204;2022-09-09T12:12:47;6.63;;;2.73;;
15716;SDS011;7960;50.908;4.204;2022-09-09T12:15:18;5.40;;;2.30;;
15716;SDS011;7960;50.908;4.204;2022-09-09T12:17:49;6.07;;;2.50;;
15716;SDS011;7960;50.908;4.204;2022-09-09T12:20:20;4.30;;;2.40;;
15716;SDS011;7960;50.908;4.204;2022-09-09T12:25:48;5.00;;;2.27;;
15716;SDS011;7960;50.908;4.204;2022-09-09T12:28:25;3.83;;;2.23;;
15716;SDS011;7960;50.908;4.204;2022-09-09T12:31:03;4.60;;;2.23;;
15716;SDS011;7960;50.908;4.204;2022-09-09T12:33:34;6.80;;;2.50;;
15716;SDS011;7960;50.908;4.204;2022-09-09T12:36:03;4.80;;;2.40;;
15716;SDS011;7960;50.908;4.204;2022-09-09T12:38:34;4.93;;;2.60;;
15716;SDS011;7960;50.908;4.204;2022-09-09T12:41:02;4.27;;;2.30;;
15716;SDS011;7960;50.908;4.204;2022-09-09T12:43:29;4.87;;;2.20;;
15716;SDS011;7960;50.908;4.204;2022-09-09T12:45:57;3.47;;;2.37;;
15716;SDS011;7960;50.908;4.204;2022-09-09T12:48:28;5.13;;;2.30;;
15716;SDS011;7960;50.908;4.204;2022-09-09T12:50:58;6.93;;;2.30;;
15716;SDS011;7960;50.908;4.204;2022-09-09T12:53:28;4.97;;;2.30;;
15716;SDS011;7960;50.908;4.204;2022-09-09T12:55:59;5.43;;;2.10;;
15716;SDS011;7960;50.908;4.204;2022-09-09T12:58:28;3.70;;;2.00;;
15716;SDS011;7960;50.908;4.204;2022-09-09T13:01:00;4.07;;;2.03;;
15716;SDS011;7960;50.908;4.204;2022-09-09T13:03:30;3.47;;;2.20;;
15716;SDS011;7960;50.908;4.204;2022-09-09T13:05:58;5.27;;;2.30;;
15716;SDS011;7960;50.908;4.204;2022-09-09T13:08:38;5.67;;;2.03;;
15716;SDS011;7960;50.908;4.204;2022-09-09T13:11:07;5.87;;;2.30;;
15716;SDS011;7960;50.908;4.204;2022-09-09T13:13:39;4.17;;;2.10;;
15716;SDS011;7960;50.908;4.204;2022-09-09T13:16:16;3.40;;;2.00;;
15716;SDS011;7960;50.908;4.204;2022-09-09T13:18:46;3.17;;;2.07;;
15716;SDS011;7960;50.908;4.204;2022-09-09T13:21:13;3.17;;;2.17;;
15716;SDS011;7960;50.908;4.204;2022-09-09T13:23:42;4.27;;;1.90;;
15716;SDS011;7960;50.908;4.204;2022-09-09T13:26:22;6.53;;;2.30;;
15716;SDS011;7960;50.908;4.204;2022-09-09T13:28:51;3.23;;;1.90;;
15716;SDS011;7960;50.908;4.204;2022-09-09T13:31:21;3.40;;;2.00;;
15716;SDS011;7960;50.908;4.204;2022-09-09T13:33:54;4.27;;;1.93;;
15716;SDS011;7960;50.908;4.204;2022-09-09T13:36:27;3.57;;;2.10;;
15716;SDS011;7960;50.908;4.204;2022-09-09T13:39:00;4.57;;;2.13;;
15716;SDS011;7960;50.908;4.204;2022-09-09T13:41:32;3.67;;;2.20;;
15716;SDS011;7960;50.908;4.204;2022-09-09T13:44:01;4.47;;;2.10;;
15716;SDS011;7960;50.908;4.204;2022-09-09T13:46:33;6.30;;;2.30;;
15716;SDS011;7960;50.908;4.204;2022-09-09T13:49:02;3.23;;;2.23;;
15716;SDS011;7960;50.908;4.204;2022-09-09T13:51:48;2.70;;;1.87;;
15716;SDS011;7960;50.908;4.204;2022-09-09T13:54:19;4.27;;;2.03;;
15716;SDS011;7960;50.908;4.204;2022-09-09T13:56:47;4.23;;;1.87;;
15716;SDS011;7960;50.908;4.204;2022-09-09T13:59:16;3.87;;;2.07;;
15716;SDS011;7960;50.908;4.204;2022-09-09T14:01:44;3.37;;;2.00;;
15716;SDS011;7960;50.908;4.204;2022-09-09T14:04:12;3.30;;;2.00;;
15716;SDS011;7960;50.908;4.204;2022-09-09T14:06:41;4.47;;;2.20;;
15716;SDS011;7960;50.908;4.204;2022-09-09T14:09:13;3.63;;;2.27;;
15716;SDS011;7960;50.908;4.204;2022-09-09T14:11:44;2.90;;;2.23;;
15716;SDS011;7960;50.908;4.204;2022-09-09T14:14:12;7.13;;;2.87;;
15716;SDS011;7960;50.908;4.204;2022-09-09T14:16:39;3.00;;;2.70;;
15716;SDS011;7960;50.908;4.204;2022-09-09T14:19:07;4.33;;;2.50;;
15716;SDS011;7960;50.908;4.204;2022-09-09T14:21:43;6.80;;;3.13;;
15716;SDS011;7960;50.908;4.204;2022-09-09T14:24:10;4.73;;;2.63;;
15716;SDS011;7960;50.908;4.204;2022-09-09T14:26:39;4.23;;;2.50;;
15716;SDS011;7960;50.908;4.204;2022-09-09T14:29:08;4.13;;;2.43;;
15716;SDS011;7960;50.908;4.204;2022-09-09T14:31:37;3.23;;;2.37;;
15716;SDS011;7960;50.908;4.204;2022-09-09T14:34:04;5.73;;;2.37;;
15716;SDS011;7960;50.908;4.204;2022-09-09T14:36:33;5.10;;;2.50;;
15716;SDS011;7960;50.908;4.204;2022-09-09T14:39:00;4.33;;;2.63;;
15716;SDS011;7960;50.908;4.204;2022-09-09T14:41:29;4.63;;;2.67;;
15716;SDS011;7960;50.908;4.204;2022-09-09T14:43:56;4.10;;;2.37;;
15716;SDS011;7960;50.908;4.204;2022-09-09T14:46:26;6.10;;;2.40;;
15716;SDS011;7960;50.908;4.204;2022-09-09T14:48:54;5.40;;;2.37;;
15716;SDS011;7960;50.908;4.204;2022-09-09T14:51:22;4.20;;;2.37;;
15716;SDS011;7960;50.908;4.204;2022-09-09T14:53:50;7.73;;;2.20;;
15716;SDS011;7960;50.908;4.204;2022-09-09T14:56:19;3.13;;;1.90;;
15716;SDS011;7960;50.908;4.204;2022-09-09T14:58:49;4.27;;;2.60;;
15716;SDS011;7960;50.908;4.204;2022-09-09T15:01:17;4.20;;;2.50;;
15716;SDS011;7960;50.908;4.204;2022-09-09T15:03:49;4.73;;;2.13;;
15716;SDS011;7960;50.908;4.204;2022-09-09T15:06:18;2.73;;;2.10;;
15716;SDS011;7960;50.908;4.204;2022-09-09T15:08:47;4.57;;;2.37;;
15716;SDS011;7960;50.908;4.204;2022-09-09T15:11:16;5.87;;;2.30;;
15716;SDS011;7960;50.908;4.204;2022-09-09T15:13:43;4.60;;;2.20;;
15716;SDS011;7960;50.908;4.204;2022-09-09T15:16:11;7.47;;;2.50;;
15716;SDS011;7960;50.908;4.204;2022-09-09T15:18:39;4.60;;;2.40;;
15716;SDS011;7960;50.908;4.204;2022-09-09T15:21:14;3.70;;;2.17;;
15716;SDS011;7960;50.908;4.204;2022-09-09T15:24:06;3.47;;;1.97;;
15716;SDS011;7960;50.908;4.204;2022-09-09T15:26:41;3.60;;;1.90;;
15716;SDS011;7960;50.908;4.204;2022-09-09T15:29:08;4.83;;;2.10;;
15716;SDS011;7960;50.908;4.204;2022-09-09T15:31:35;3.20;;;2.10;;
15716;SDS011;7960;50.908;4.204;2022-09-09T15:34:03;5.13;;;2.60;;
15716;SDS011;7960;50.908;4.204;2022-09-09T15:36:33;4.50;;;2.10;;
15716;SDS011;7960;50.908;4.204;2022-09-09T15:39:02;3.20;;;2.20;;
15716;SDS011;7960;50.908;4.204;2022-09-09T15:41:30;4.50;;;2.27;;